createdAt,value
2018-08-09T00:00:00.901Z,93.38
2018-08-09T00:02:30.621Z,92.76
2018-08-09T00:05:00.581Z,92.68
2018-08-09T00:07:30.620Z,92.89
2018-08-09T00:10:00.362Z,93.29
2018-08-09T00:12:30.175Z,92.90
2018-08-09T00:15:00.003Z,92.78
2018-08-09T00:17:29.921Z,92.95
2018-08-09T00:19:59.778Z,92.98
2018-08-09T00:25:04.721Z,92.06
2018-08-09T00:27:34.794Z,92.96
2018-08-09T00:30:04.881Z,92.45
2018-08-09T00:32:52.281Z,92.75
2018-08-09T00:35:22.282Z,92.85
2018-08-09T00:37:52.237Z,92.07
2018-08-09T00:40:22.115Z,92.34
2018-08-09T00:42:52.115Z,91.82
2018-08-09T00:45:22.015Z,92.12
2018-08-09T00:47:51.894Z,91.60
2018-08-09T00:50:21.874Z,91.73
2018-08-09T00:52:51.656Z,91.48
2018-08-09T00:55:21.474Z,91.62
2018-08-09T00:57:51.481Z,91.77
2018-08-09T01:00:21.321Z,91.98
2018-08-09T01:02:51.234Z,91.64
2018-08-09T01:05:21.242Z,91.05
2018-08-09T01:07:51.181Z,91.20
2018-08-09T01:10:20.944Z,92.23
2018-08-09T01:12:50.681Z,92.49
2018-08-09T01:15:20.655Z,91.24
2018-08-09T01:17:50.595Z,92.04
2018-08-09T01:20:20.594Z,92.20
2018-08-09T01:22:50.650Z,91.86
2018-08-09T01:25:20.454Z,91.82
2018-08-09T01:27:50.234Z,92.12
2018-08-09T01:30:20.554Z,92.17
2018-08-09T01:32:50.448Z,92.43
2018-08-09T01:35:20.421Z,92.60
2018-08-09T01:37:50.414Z,92.40
2018-08-09T01:40:20.116Z,92.78
2018-08-09T01:43:00.380Z,92.27
2018-08-09T01:45:30.313Z,92.73
2018-08-09T01:48:00.255Z,91.46
2018-08-09T01:50:30.113Z,92.30
2018-08-09T01:52:59.993Z,92.57
2018-08-09T01:55:29.673Z,92.08
2018-08-09T01:57:59.600Z,91.73
2018-08-09T02:00:29.320Z,93.66
2018-08-09T02:02:59.296Z,93.33
2018-08-09T02:05:29.217Z,93.92
2018-08-09T02:07:59.113Z,93.65
2018-08-09T02:10:29.300Z,93.75
2018-08-09T02:12:59.240Z,93.01
2018-08-09T02:15:29.959Z,92.66
2018-08-09T02:18:00.380Z,92.50
2018-08-09T02:20:30.325Z,92.85
2018-08-09T02:23:00.319Z,93.21
2018-08-09T02:25:30.185Z,93.54
2018-08-09T02:28:00.119Z,93.24
2018-08-09T02:30:29.880Z,93.29
2018-08-09T02:32:59.951Z,93.15
2018-08-09T02:35:29.759Z,93.86
2018-08-09T02:37:59.718Z,93.70
2018-08-09T02:40:29.518Z,94.26
2018-08-09T02:42:59.878Z,93.40
2018-08-09T02:45:29.632Z,93.32
2018-08-09T02:47:59.451Z,93.04
2018-08-09T02:50:29.159Z,94.17
2018-08-09T02:52:59.091Z,92.90
2018-08-09T02:55:29.109Z,94.03
2018-08-09T02:57:59.098Z,93.65
2018-08-09T03:00:28.953Z,92.64
2018-08-09T03:02:58.910Z,93.07
2018-08-09T03:05:28.690Z,93.04
2018-08-09T03:07:58.658Z,93.21
2018-08-09T03:10:28.370Z,94.20
2018-08-09T03:12:58.276Z,93.78
2018-08-09T03:15:28.051Z,93.93
2018-08-09T03:17:58.190Z,93.61
2018-08-09T03:20:28.089Z,93.67
2018-08-09T03:22:58.048Z,93.71
2018-08-09T03:25:27.749Z,93.33
2018-08-09T03:27:57.689Z,94.20
2018-08-09T03:30:27.491Z,94.04
2018-08-09T03:32:57.350Z,93.92
2018-08-09T03:35:27.083Z,93.81
2018-08-09T03:37:57.261Z,94.67
2018-08-09T03:40:28.187Z,93.92
2018-08-09T03:42:59.104Z,94.26
2018-08-09T03:45:29.067Z,93.65
2018-08-09T03:47:58.985Z,93.95
2018-08-09T03:50:28.898Z,93.89
2018-08-09T03:52:58.812Z,94.08
2018-08-09T03:55:28.680Z,93.85
2018-08-09T03:57:58.840Z,94.48
2018-08-09T04:00:28.611Z,94.67
2018-08-09T04:02:58.799Z,94.59
2018-08-09T04:05:29.681Z,93.64
2018-08-09T04:08:00.690Z,93.83
2018-08-09T04:10:30.766Z,94.29
2018-08-09T04:13:00.944Z,93.93
2018-08-09T04:15:30.913Z,94.38
2018-08-09T04:18:00.854Z,94.84
2018-08-09T04:20:31.218Z,94.84
2018-08-09T04:23:01.365Z,94.03
2018-08-09T04:25:31.293Z,93.82
2018-08-09T04:28:01.340Z,93.50
2018-08-09T04:30:31.072Z,93.86
2018-08-09T04:33:00.944Z,94.62
2018-08-09T04:35:30.910Z,94.70
2018-08-09T04:38:00.885Z,93.83
2018-08-09T04:40:31.067Z,93.84
2018-08-09T04:43:01.160Z,94.16
2018-08-09T04:45:30.924Z,94.71
2018-08-09T04:48:00.846Z,94.31
2018-08-09T04:50:30.771Z,94.91
2018-08-09T04:53:00.666Z,94.29
2018-08-09T04:55:30.400Z,94.34
2018-08-09T04:58:00.386Z,94.15
2018-08-09T05:00:30.119Z,95.07
2018-08-09T05:03:00.206Z,94.17
2018-08-09T05:05:29.995Z,94.29
2018-08-09T05:08:00.102Z,94.78
2018-08-09T05:10:29.952Z,94.48
2018-08-09T05:12:59.988Z,94.55
2018-08-09T05:15:29.819Z,94.23
2018-08-09T05:17:59.798Z,94.40
2018-08-09T05:20:29.483Z,95.10
2018-08-09T05:22:59.393Z,93.48
2018-08-09T05:25:29.363Z,94.13
2018-08-09T05:27:59.302Z,92.47
2018-08-09T05:30:29.286Z,91.46
2018-08-09T05:32:59.264Z,91.27
2018-08-09T05:35:29.005Z,90.79
2018-08-09T05:37:59.019Z,89.25
2018-08-09T05:40:28.899Z,85.17
2018-08-09T05:42:58.947Z,83.95
2018-08-09T05:45:28.833Z,82.96
2018-08-09T05:47:58.741Z,83.92
2018-08-09T05:50:28.676Z,78.73
2018-08-09T05:52:58.762Z,83.35
2018-08-09T05:55:28.460Z,77.44
2018-08-09T05:57:58.392Z,79.27
2018-08-09T06:00:28.361Z,79.62
2018-08-09T06:02:58.255Z,79.73
2018-08-09T06:05:28.361Z,77.05
2018-08-09T06:07:58.333Z,78.85
2018-08-09T06:10:28.294Z,76.46
2018-08-09T06:12:58.312Z,73.54
2018-08-09T06:15:28.341Z,72.17
2018-08-09T06:17:58.484Z,73.61
2018-08-09T06:20:28.646Z,72.89
2018-08-09T06:22:58.632Z,66.63
2018-08-09T06:25:28.700Z,70.41
2018-08-09T06:27:58.725Z,68.08
2018-08-09T06:30:28.827Z,67.80
2018-08-09T06:32:58.813Z,70.66
2018-08-09T06:35:29.578Z,71.60
2018-08-09T06:37:59.800Z,71.62
2018-08-09T06:40:29.939Z,70.39
2018-08-09T06:42:59.887Z,71.43
2018-08-09T06:45:29.962Z,68.70
2018-08-09T06:48:00.367Z,66.34
2018-08-09T06:50:30.219Z,63.13
2018-08-09T06:53:00.067Z,68.16
2018-08-09T06:55:30.403Z,66.41
2018-08-09T06:58:01.875Z,63.03
2018-08-09T07:00:31.870Z,61.98
2018-08-09T07:03:03.322Z,63.50
2018-08-09T07:05:33.208Z,64.97
2018-08-09T07:08:05.302Z,64.54
2018-08-09T07:10:35.061Z,59.06
2018-08-09T07:13:06.754Z,60.34
2018-08-09T07:15:36.994Z,58.76
2018-08-09T07:18:07.444Z,59.61
2018-08-09T07:20:37.746Z,59.17
2018-08-09T07:23:09.740Z,60.73
2018-08-09T07:25:39.471Z,61.68
2018-08-09T07:28:10.953Z,59.53
2018-08-09T07:30:40.893Z,59.64
2018-08-09T07:33:11.634Z,58.90
2018-08-09T07:35:41.434Z,58.47
2018-08-09T07:38:12.593Z,56.04
2018-08-09T07:40:42.312Z,56.00
2018-08-09T07:43:13.048Z,59.53
2018-08-09T07:45:42.983Z,56.48
2018-08-09T07:48:12.813Z,52.17
2018-08-09T07:50:42.894Z,56.78
2018-08-09T07:53:14.212Z,55.45
2018-08-09T07:55:44.030Z,58.68
2018-08-09T07:58:13.972Z,54.49
2018-08-09T08:00:43.872Z,53.43
2018-08-09T08:03:13.499Z,53.20
2018-08-09T08:05:43.473Z,52.50
2018-08-09T08:08:13.180Z,52.70
2018-08-09T08:10:42.992Z,48.20
2018-08-09T08:13:12.772Z,45.84
2018-08-09T08:15:42.580Z,49.54
2018-08-09T08:18:12.485Z,49.84
2018-08-09T08:20:42.527Z,51.06
2018-08-09T08:23:12.220Z,51.21
2018-08-09T08:25:42.017Z,52.55
2018-08-09T08:28:11.972Z,50.30
2018-08-09T08:30:41.852Z,53.42
2018-08-09T08:33:11.672Z,51.65
2018-08-09T08:35:41.963Z,50.74
2018-08-09T08:38:12.313Z,51.23
2018-08-09T08:40:42.259Z,51.78
2018-08-09T08:43:12.264Z,50.61
2018-08-09T08:45:42.278Z,52.92
2018-08-09T08:48:12.155Z,51.14
2018-08-09T08:50:42.081Z,53.96
2018-08-09T08:53:12.093Z,51.87
2018-08-09T08:55:41.924Z,46.80
2018-08-09T08:58:12.065Z,50.68
2018-08-09T09:00:42.231Z,52.15
2018-08-09T09:03:12.102Z,49.38
2018-08-09T09:05:42.118Z,44.15
2018-08-09T09:08:12.525Z,47.34
2018-08-09T09:10:42.924Z,48.28
2018-08-09T09:13:12.616Z,46.98
2018-08-09T09:15:42.598Z,49.84
2018-08-09T09:18:12.578Z,50.12
2018-08-09T09:20:42.459Z,48.90
2018-08-09T09:23:12.480Z,47.68
2018-08-09T09:25:42.472Z,49.02
2018-08-09T09:28:12.363Z,48.59
2018-08-09T09:30:42.329Z,46.49
2018-08-09T09:33:12.136Z,46.54
2018-08-09T09:35:42.080Z,45.67
2018-08-09T09:38:11.877Z,46.60
2018-08-09T09:40:42.275Z,50.49
2018-08-09T09:43:12.036Z,48.48
2018-08-09T09:45:42.765Z,48.51
2018-08-09T09:48:12.837Z,46.11
2018-08-09T09:50:42.663Z,45.97
2018-08-09T09:53:12.678Z,49.23
2018-08-09T09:55:43.237Z,46.66
2018-08-09T09:58:13.137Z,47.80
2018-08-09T10:00:47.885Z,47.65
2018-08-09T10:03:17.806Z,47.09
2018-08-09T10:05:47.716Z,48.08
2018-08-09T10:08:17.698Z,46.19
2018-08-09T10:10:47.547Z,47.56
2018-08-09T10:13:17.499Z,48.82
2018-08-09T10:15:47.305Z,45.08
2018-08-09T10:18:17.005Z,45.74
2018-08-09T10:20:46.756Z,47.25
2018-08-09T10:23:16.525Z,46.25
2018-08-09T10:25:46.317Z,47.59
2018-08-09T10:28:16.317Z,48.35
2018-08-09T10:30:46.218Z,48.89
2018-08-09T10:33:16.084Z,48.31
2018-08-09T10:35:46.837Z,46.31
2018-08-09T10:38:16.839Z,39.57
2018-08-09T10:40:46.788Z,38.81
2018-08-09T10:43:16.639Z,39.01
2018-08-09T10:45:46.480Z,41.36
2018-08-09T10:48:16.163Z,38.16
2018-08-09T10:50:46.150Z,43.93
2018-08-09T10:53:15.903Z,40.50
2018-08-09T10:55:46.046Z,36.96
2018-08-09T10:58:16.024Z,36.15
2018-08-09T11:00:46.246Z,37.24
2018-08-09T11:03:16.221Z,38.78
2018-08-09T11:05:46.322Z,37.08
2018-08-09T11:08:16.022Z,33.11
2018-08-09T11:10:46.119Z,35.16
2018-08-09T11:13:16.184Z,36.90
2018-08-09T11:15:46.040Z,39.29
2018-08-09T11:18:15.911Z,35.40
2018-08-09T11:20:45.843Z,39.64
2018-08-09T11:23:15.688Z,39.88
2018-08-09T11:25:45.696Z,37.74
2018-08-09T11:28:15.548Z,35.70
2018-08-09T11:30:45.889Z,38.17
2018-08-09T11:33:15.845Z,37.70
2018-08-09T11:35:45.669Z,32.41
2018-08-09T11:38:15.309Z,35.06
2018-08-09T11:40:45.152Z,33.18
2018-08-09T11:43:14.950Z,34.33
2018-08-09T11:45:44.970Z,31.93
2018-08-09T11:48:14.844Z,35.61
2018-08-09T11:50:45.217Z,34.83
2018-08-09T11:53:15.203Z,34.39
2018-08-09T11:55:45.324Z,34.36
2018-08-09T11:58:15.163Z,31.91
2018-08-09T12:00:45.095Z,36.42
2018-08-09T12:03:14.962Z,34.13
2018-08-09T12:05:44.753Z,34.83
2018-08-09T12:08:14.756Z,40.66
2018-08-09T12:10:44.575Z,39.56
2018-08-09T12:13:14.644Z,40.98
2018-08-09T12:15:44.482Z,40.73
2018-08-09T12:18:14.604Z,43.12
2018-08-09T12:20:44.456Z,37.75
2018-08-09T12:23:14.256Z,42.18
2018-08-09T12:25:44.075Z,34.45
2018-08-09T12:28:14.179Z,29.94
2018-08-09T12:30:44.064Z,31.83
2018-08-09T12:33:13.875Z,33.78
2018-08-09T12:35:43.779Z,31.08
2018-08-09T12:38:13.941Z,29.54
2018-08-09T12:40:44.000Z,28.16
2018-08-09T12:43:13.944Z,33.27
2018-08-09T12:45:43.907Z,28.66
2018-08-09T12:48:13.815Z,27.92
2018-08-09T12:50:43.911Z,28.27
2018-08-09T12:53:13.738Z,29.94
2018-08-09T12:55:43.588Z,31.80
2018-08-09T12:58:13.416Z,31.08
2018-08-09T13:00:43.461Z,29.78
2018-08-09T13:03:13.034Z,27.38
2018-08-09T13:05:42.882Z,27.39
2018-08-09T13:08:12.675Z,28.78
2018-08-09T13:10:42.324Z,30.76
2018-08-09T13:13:12.029Z,29.78
2018-08-09T13:15:42.162Z,30.96
2018-08-09T13:18:11.771Z,31.49
2018-08-09T13:20:41.323Z,30.41
2018-08-09T13:23:11.023Z,30.05
2018-08-09T13:25:40.501Z,27.81
2018-08-09T13:28:09.975Z,29.56
2018-08-09T13:30:39.576Z,33.05
2018-08-09T13:33:09.416Z,29.31
2018-08-09T13:35:38.971Z,28.55
2018-08-09T13:38:08.686Z,35.28
2018-08-09T13:40:38.183Z,31.95
2018-08-09T13:43:07.896Z,29.95
2018-08-09T13:45:37.617Z,29.16
2018-08-09T13:48:07.458Z,29.32
2018-08-09T13:50:37.117Z,28.34
2018-08-09T13:53:06.916Z,29.75
2018-08-09T13:55:38.061Z,33.34
2018-08-09T13:58:07.772Z,30.55
2018-08-09T14:00:37.197Z,33.56
2018-08-09T14:03:06.776Z,34.08
2018-08-09T14:05:46.641Z,33.13
2018-08-09T14:08:17.998Z,29.54
2018-08-09T14:10:47.608Z,36.22
2018-08-09T14:13:17.231Z,35.66
2018-08-09T14:15:47.917Z,32.91
2018-08-09T14:18:28.369Z,33.92
2018-08-09T14:21:15.499Z,30.75
2018-08-09T14:23:47.539Z,33.26
2018-08-09T14:26:29.882Z,26.97
2018-08-09T14:29:14.169Z,33.92
2018-08-09T14:31:44.122Z,31.68
2018-08-09T14:34:16.426Z,28.09
2018-08-09T14:36:56.908Z,31.03
2018-08-09T14:39:31.353Z,33.32
2018-08-09T14:42:01.380Z,30.97
2018-08-09T14:44:32.911Z,31.00
2018-08-09T14:47:10.542Z,32.01
2018-08-09T14:49:50.621Z,32.92
2018-08-09T14:52:22.988Z,32.76
2018-08-09T14:55:05.768Z,29.40
2018-08-09T14:57:37.956Z,32.88
2018-08-09T15:00:21.261Z,34.86
2018-08-09T15:03:04.044Z,28.40
2018-08-09T15:05:53.204Z,28.44
2018-08-09T15:08:44.046Z,30.75
2018-08-09T15:11:22.542Z,30.74
2018-08-09T15:13:53.980Z,30.66
2018-08-09T15:16:25.554Z,31.29
2018-08-09T15:18:58.186Z,29.97
2018-08-09T15:21:47.484Z,32.84
2018-08-09T15:24:18.048Z,29.80
2018-08-09T15:26:47.782Z,31.56
2018-08-09T15:29:18.326Z,32.92
2018-08-09T15:31:48.766Z,33.47
2018-08-09T15:34:19.207Z,32.86
2018-08-09T15:36:48.919Z,35.15
2018-08-09T15:39:18.911Z,34.15
2018-08-09T15:41:48.700Z,32.89
2018-08-09T15:44:18.297Z,34.29
2018-08-09T15:46:47.964Z,34.10
2018-08-09T15:49:17.957Z,32.39
2018-08-09T15:51:47.652Z,32.22
2018-08-09T15:54:17.727Z,32.83
2018-08-09T15:56:47.684Z,33.48
2018-08-09T15:59:17.837Z,34.50
2018-08-09T16:01:48.250Z,35.72
2018-08-09T16:04:17.765Z,35.43
2018-08-09T16:06:47.404Z,35.74
2018-08-09T16:09:18.932Z,35.05
2018-08-09T16:11:48.755Z,36.83
2018-08-09T16:14:18.620Z,33.51
2018-08-09T16:16:48.346Z,36.27
2018-08-09T16:19:19.311Z,33.03
2018-08-09T16:21:49.166Z,35.32
2018-08-09T16:24:19.430Z,36.94
2018-08-09T16:26:49.421Z,35.25
2018-08-09T16:29:19.069Z,36.86
2018-08-09T16:31:48.803Z,34.20
2018-08-09T16:34:18.612Z,35.74
2018-08-09T16:36:48.270Z,36.49
2018-08-09T16:39:18.814Z,37.91
2018-08-09T16:41:48.742Z,40.28
2018-08-09T16:44:18.780Z,36.57
2018-08-09T16:46:50.063Z,35.16
2018-08-09T16:49:20.051Z,37.66
2018-08-09T16:51:49.701Z,38.85
2018-08-09T16:54:19.301Z,38.12
2018-08-09T16:56:49.549Z,41.73
2018-08-09T16:59:19.241Z,41.26
2018-08-09T17:01:49.568Z,42.76
2018-08-09T17:04:19.201Z,45.32
2018-08-09T17:06:48.848Z,43.54
2018-08-09T17:09:18.321Z,42.94
2018-08-09T17:11:47.961Z,47.57
2018-08-09T17:14:17.621Z,49.04
2018-08-09T17:16:47.221Z,48.87
2018-08-09T17:19:17.301Z,51.63
2018-08-09T17:21:47.144Z,54.92
2018-08-09T17:24:16.920Z,55.11
2018-08-09T17:26:46.561Z,58.45
2018-08-09T17:29:16.202Z,57.69
2018-08-09T17:31:46.842Z,59.88
2018-08-09T17:34:16.740Z,58.06
2018-08-09T17:36:46.487Z,61.21
2018-08-09T17:39:16.319Z,64.60
2018-08-09T17:41:46.270Z,65.84
2018-08-09T17:44:16.664Z,64.46
2018-08-09T17:46:46.127Z,66.28
2018-08-09T17:49:15.994Z,66.55
2018-08-09T17:51:45.947Z,68.06
2018-08-09T17:54:15.845Z,67.71
2018-08-09T17:56:45.499Z,69.31
2018-08-09T17:59:15.388Z,70.42
2018-08-09T18:01:45.160Z,71.17
2018-08-09T18:04:15.121Z,69.36
2018-08-09T18:06:44.874Z,72.39
2018-08-09T18:09:15.127Z,71.26
2018-08-09T18:11:45.015Z,73.34
2018-08-09T18:14:15.967Z,70.99
2018-08-09T18:16:45.739Z,71.99
2018-08-09T18:19:16.228Z,73.59
2018-08-09T18:21:45.867Z,74.56
2018-08-09T18:24:16.743Z,74.35
2018-08-09T18:26:47.159Z,74.31
2018-08-09T18:29:17.859Z,76.99
2018-08-09T18:31:47.880Z,75.66
2018-08-09T18:34:18.579Z,77.38
2018-08-09T18:36:48.447Z,78.99
2018-08-09T18:39:19.240Z,78.71
2018-08-09T18:41:49.160Z,78.30
2018-08-09T18:44:19.256Z,77.98
2018-08-09T18:46:49.086Z,77.79
2018-08-09T18:49:18.860Z,78.44
2018-08-09T18:51:48.828Z,78.72
2018-08-09T18:54:18.367Z,78.58
2018-08-09T18:56:47.858Z,79.70
2018-08-09T18:59:17.350Z,80.06
2018-08-09T19:01:46.943Z,79.16
2018-08-09T19:04:16.426Z,79.68
2018-08-09T19:06:45.946Z,80.20
2018-08-09T19:09:15.709Z,81.84
2018-08-09T19:11:47.261Z,81.76
2018-08-09T19:14:16.787Z,81.35
2018-08-09T19:16:46.415Z,81.99
2018-08-09T19:19:15.920Z,80.75
2018-08-09T19:21:45.407Z,80.78
2018-08-09T19:24:16.713Z,82.21
2018-08-09T19:26:47.216Z,81.41
2018-08-09T19:29:17.271Z,82.69
2018-08-09T19:31:48.131Z,82.18
2018-08-09T19:34:18.176Z,82.84
2018-08-09T19:36:48.326Z,83.55
2018-08-09T19:39:17.727Z,83.22
2018-08-09T19:41:47.266Z,83.14
2018-08-09T19:44:16.793Z,83.51
2018-08-09T19:46:46.393Z,82.09
2018-08-09T19:49:15.933Z,82.71
2018-08-09T19:51:45.531Z,81.56
2018-08-09T19:54:15.074Z,82.74
2018-08-09T19:56:44.547Z,83.80
2018-08-09T19:59:14.167Z,83.42
2018-08-09T20:01:43.727Z,83.42
2018-08-09T20:04:13.314Z,83.75
2018-08-09T20:06:42.992Z,82.45
2018-08-09T20:09:12.585Z,82.21
2018-08-09T20:11:42.134Z,82.71
2018-08-09T20:14:11.574Z,82.50
2018-08-09T20:16:41.154Z,82.69
2018-08-09T20:19:10.586Z,83.75
2018-08-09T20:21:40.215Z,84.79
2018-08-09T20:24:10.030Z,84.35
2018-08-09T20:26:39.553Z,85.52
2018-08-09T20:29:09.118Z,85.44
2018-08-09T20:31:38.635Z,85.37
2018-08-09T20:34:08.239Z,86.19
2018-08-09T20:36:37.847Z,85.74
2018-08-09T20:39:12.632Z,85.98
2018-08-09T20:41:42.275Z,85.65
2018-08-09T20:44:12.516Z,85.38
2018-08-09T20:46:42.255Z,84.89
2018-08-09T20:49:11.694Z,85.05
2018-08-09T20:51:41.161Z,83.68
2018-08-09T20:54:10.898Z,84.03
2018-08-09T20:56:40.408Z,83.63
2018-08-09T20:59:10.100Z,83.21
2018-08-09T21:01:39.741Z,82.27
2018-08-09T21:04:10.304Z,82.55
2018-08-09T21:06:39.913Z,85.19
2018-08-09T21:09:11.701Z,84.77
2018-08-09T21:11:41.731Z,85.38
2018-08-09T21:14:11.194Z,86.02
2018-08-09T21:16:40.772Z,85.16
2018-08-09T21:19:10.291Z,86.51
2018-08-09T21:21:40.076Z,86.87
2018-08-09T21:24:09.609Z,86.97
2018-08-09T21:26:39.228Z,86.28
2018-08-09T21:29:08.853Z,87.45
2018-08-09T21:31:38.382Z,86.70
2018-08-09T21:34:07.895Z,86.82
2018-08-09T21:36:37.406Z,87.28
2018-08-09T21:39:10.914Z,87.46
2018-08-09T21:41:40.850Z,88.19
2018-08-09T21:44:10.296Z,88.92
2018-08-09T21:46:40.033Z,88.77
2018-08-09T21:49:09.452Z,88.98
2018-08-09T21:51:39.129Z,89.29
2018-08-09T21:54:08.677Z,89.79
2018-08-09T21:56:38.426Z,89.44
2018-08-09T21:59:07.872Z,88.77
2018-08-09T22:01:37.488Z,89.13
2018-08-09T22:04:07.028Z,88.50
2018-08-09T22:06:41.668Z,88.76
2018-08-09T22:11:17.947Z,89.28
2018-08-09T22:13:52.756Z,89.41
2018-08-09T22:16:27.276Z,88.86
2018-08-09T22:19:01.815Z,87.84
2018-08-09T22:21:36.412Z,87.96
2018-08-09T22:24:06.272Z,86.88
2018-08-09T22:26:36.181Z,87.04
2018-08-09T22:29:05.954Z,87.69
2018-08-09T22:31:35.634Z,88.05
2018-08-09T22:34:05.083Z,87.18
2018-08-09T22:36:34.656Z,87.86
2018-08-09T22:39:04.976Z,88.59
2018-08-09T22:41:34.419Z,88.81
2018-08-09T22:44:04.512Z,88.07
2018-08-09T22:46:34.109Z,88.19
2018-08-09T22:49:04.062Z,88.04
2018-08-09T22:51:33.670Z,88.56
2018-08-09T22:54:03.201Z,88.92
2018-08-09T22:56:32.768Z,88.26
2018-08-09T22:59:02.216Z,88.67
2018-08-09T23:01:31.788Z,87.81
2018-08-09T23:04:01.199Z,88.05
2018-08-09T23:06:31.796Z,88.79
2018-08-09T23:09:01.216Z,88.62
2018-08-09T23:11:30.756Z,88.96
2018-08-09T23:14:00.220Z,89.47
2018-08-09T23:16:29.799Z,89.17
2018-08-09T23:18:59.240Z,88.78
2018-08-09T23:21:28.768Z,87.75
2018-08-09T23:23:58.183Z,88.40
2018-08-09T23:26:27.874Z,88.08
2018-08-09T23:28:57.414Z,88.87
2018-08-09T23:31:27.043Z,88.54
2018-08-09T23:33:56.620Z,88.58
2018-08-09T23:36:26.198Z,89.29
2018-08-09T23:38:55.711Z,88.99
2018-08-09T23:41:25.232Z,89.06
2018-08-09T23:43:54.736Z,89.38
2018-08-09T23:46:24.349Z,90.14
2018-08-09T23:48:53.739Z,89.80
2018-08-09T23:51:23.280Z,90.39
2018-08-09T23:53:52.841Z,90.92
2018-08-09T23:56:22.471Z,91.31
2018-08-09T23:58:51.863Z,90.55
